Time;durP1;ratioP1;P1;durP2;ratioP2;P2;SDS_P1;SDS_P2;PMS_P1;PMS_P2;Temp;Humidity;BMP_temperature;BMP_pressure;BME280_temperature;BME280_humidity;BME280_pressure;Samples;Min_cycle;Max_cycle;Signal;HPM_P1;HPM_P2
2022/09/15 00:02:17;;;;;;;10.30;6.20;;;;;;;22.71;55.11;101208.69;5074434;28;20028;-47
2022/09/15 00:04:43;;;;;;;9.48;5.70;;;;;;;22.58;55.91;101212.84;5090390;28;20073;-47
2022/09/15 00:07:10;;;;;;;8.20;5.78;;;;;;;22.56;56.19;101215.84;5074962;28;20522;-51
2022/09/15 00:09:36;;;;;;;10.45;5.57;;;;;;;22.64;55.50;101212.53;5094013;28;20055;-48
2022/09/15 00:12:03;;;;;;;8.80;5.53;;;;;;;22.61;55.75;101220.47;5094598;28;20095;-49
2022/09/15 00:14:29;;;;;;;6.03;4.88;;;;;;;22.57;56.04;101213.94;5095217;28;20035;-51
2022/09/15 00:16:55;;;;;;;5.65;4.95;;;;;;;22.61;55.76;101207.66;5087836;28;20527;-50
2022/09/15 00:19:21;;;;;;;6.65;5.15;;;;;;;22.57;55.12;101217.47;5074198;28;20025;-48
2022/09/15 00:21:48;;;;;;;9.85;5.18;;;;;;;22.53;56.00;101218.31;5074651;28;20017;-49
2022/09/15 00:24:14;;;;;;;7.85;5.13;;;;;;;22.43;56.72;101221.06;5074488;28;20089;-51
2022/09/15 00:26:40;;;;;;;6.60;5.53;;;;;;;22.26;57.11;101221.34;5074493;28;20067;-47
2022/09/15 00:29:06;;;;;;;8.35;5.60;;;;;;;22.23;57.24;101222.75;5074332;28;20101;-48
2022/09/15 00:31:33;;;;;;;9.93;5.80;;;;;;;22.23;57.79;101227.38;5074583;28;20025;-48
2022/09/15 00:34:04;;;;;;;8.45;5.32;;;;;;;22.25;57.31;101222.44;5074371;28;20028;-48
2022/09/15 00:36:30;;;;;;;8.52;5.85;;;;;;;22.12;58.18;101229.28;5074738;28;20033;-49
2022/09/15 00:38:57;;;;;;;7.03;5.63;;;;;;;22.10;58.33;101228.75;5087581;28;20598;-48
2022/09/15 00:41:24;;;;;;;9.02;5.85;;;;;;;21.97;58.59;101226.53;5094380;28;20107;-48
2022/09/15 00:44:19;;;;;;;7.30;6.10;;;;;;;21.72;59.09;101235.53;5094665;28;20114;-49
2022/09/15 00:46:49;;;;;;;9.65;5.45;;;;;;;21.68;59.52;101234.41;5077189;28;20032;-51
2022/09/15 00:49:27;;;;;;;8.63;5.93;;;;;;;21.54;60.08;101231.38;5093485;28;20058;-48
2022/09/15 00:52:08;;;;;;;9.48;5.72;;;;;;;21.53;60.10;101232.47;5094303;28;20063;-48
2022/09/15 00:55:01;;;;;;;6.90;5.82;;;;;;;21.45;59.99;101233.03;5094339;28;20016;-50
2022/09/15 00:58:05;;;;;;;10.13;6.03;;;;;;;21.43;60.40;101232.47;5094605;28;20027;-48
2022/09/15 01:00:32;;;;;;;6.97;5.28;;;;;;;20.99;60.94;101224.69;5069834;28;20047;-49
2022/09/15 01:02:59;;;;;;;15.13;5.82;;;;;;;21.08;61.11;101236.69;5093765;28;20385;-50
2022/09/15 01:05:37;;;;;;;9.43;5.57;;;;;;;21.18;60.72;101236.72;5094084;28;20024;-50
2022/09/15 01:08:10;;;;;;;7.15;5.95;;;;;;;20.99;60.99;101235.56;5093709;28;20024;-50
2022/09/15 01:10:39;;;;;;;8.15;5.55;;;;;;;21.02;61.13;101235.03;5095485;28;20488;-47
2022/09/15 01:13:08;;;;;;;8.70;6.32;;;;;;;20.86;61.67;101225.97;5093656;28;20039;-48
2022/09/15 01:16:01;;;;;;;7.65;5.80;;;;;;;20.66;62.47;101237.59;5092814;28;20028;-49
2022/09/15 01:19:00;;;;;;;8.15;5.75;;;;;;;20.78;61.78;101238.19;5093335;28;20439;-48
2022/09/15 01:21:45;;;;;;;9.60;6.18;;;;;;;20.77;61.82;101224.84;5093952;28;20106;-51
2022/09/15 01:24:32;;;;;;;8.57;6.07;;;;;;;20.66;61.45;101234.88;5098987;28;20024;-51
2022/09/15 01:27:11;;;;;;;8.25;5.53;;;;;;;20.59;62.14;101236.97;5113097;28;20667;-52
2022/09/15 01:29:58;;;;;;;8.70;5.85;;;;;;;20.39;62.96;101239.56;5100575;28;20418;-50
2022/09/15 01:33:03;;;;;;;7.20;5.78;;;;;;;20.39;63.48;101240.38;5093381;28;20031;-50
2022/09/15 01:35:43;;;;;;;7.50;6.10;;;;;;;20.45;63.43;101252.09;5092957;28;20032;-50
2022/09/15 01:38:15;;;;;;;7.70;5.53;;;;;;;20.21;64.12;101254.34;5094392;28;20038;-51
2022/09/15 01:40:49;;;;;;;6.68;5.78;;;;;;;19.97;64.92;101245.75;5082002;28;20025;-50
2022/09/15 01:43:17;;;;;;;8.23;5.57;;;;;;;20.16;64.61;101246.19;5085017;28;20043;-53
2022/09/15 01:45:46;;;;;;;8.07;5.95;;;;;;;19.98;65.04;101247.38;5086539;28;20038;-50
2022/09/15 01:48:13;;;;;;;8.40;5.57;;;;;;;20.04;64.77;101239.03;5114341;28;20031;-51
2022/09/15 01:50:46;;;;;;;6.88;5.55;;;;;;;19.94;65.36;101249.81;5113841;28;20028;-47
2022/09/15 01:53:18;;;;;;;11.70;6.00;;;;;;;19.84;65.47;101257.88;5114084;28;20480;-50
2022/09/15 01:56:07;;;;;;;8.25;6.15;;;;;;;19.84;65.80;101262.47;5111295;28;20425;-47
2022/09/15 01:58:35;;;;;;;10.68;6.20;;;;;;;19.87;65.38;101261.94;5093595;28;20028;-49
2022/09/15 02:01:26;;;;;;;7.07;6.00;;;;;;;19.83;66.07;101260.84;5092233;28;20040;-50
2022/09/15 02:04:11;;;;;;;7.97;6.25;;;;;;;19.70;66.35;101257.44;5093974;28;20108;-48
2022/09/15 02:06:47;;;;;;;7.85;5.97;;;;;;;19.56;67.13;101261.63;5080632;28;20016;-47
2022/09/15 02:09:20;;;;;;;8.57;5.68;;;;;;;19.60;66.68;101268.22;5098855;28;20031;-47
2022/09/15 02:12:02;;;;;;;7.57;5.97;;;;;;;19.56;66.79;101271.69;5100108;28;20089;-47
2022/09/15 02:14:47;;;;;;;9.50;6.95;;;;;;;19.46;67.39;101272.38;5095976;28;20020;-49
2022/09/15 02:17:17;;;;;;;9.43;6.60;;;;;;;19.42;67.63;101261.19;5092910;28;20083;-50
2022/09/15 02:19:55;;;;;;;7.70;5.78;;;;;;;19.52;67.49;101271.34;5096387;28;20028;-48
2022/09/15 02:22:26;;;;;;;11.80;6.25;;;;;;;19.25;68.34;101274.84;5081510;28;20024;-49
2022/09/15 02:25:16;;;;;;;10.18;5.97;;;;;;;19.22;68.72;101267.22;5083612;28;20032;-51
2022/09/15 02:27:49;;;;;;;13.25;6.25;;;;;;;19.05;69.40;101268.38;5085333;28;20035;-47
2022/09/15 02:30:18;;;;;;;10.27;5.47;;;;;;;19.13;69.35;101273.34;5070845;28;20046;-49
2022/09/15 02:33:07;;;;;;;9.00;5.75;;;;;;;18.88;69.87;101271.94;5090734;28;20036;-48
2022/09/15 02:35:35;;;;;;;11.25;6.28;;;;;;;18.80;70.49;101271.56;5089520;28;20468;-49
2022/09/15 02:38:05;;;;;;;8.32;5.90;;;;;;;18.63;70.65;101277.78;5091391;28;20480;-48
2022/09/15 02:40:32;;;;;;;8.55;5.82;;;;;;;18.69;70.41;101267.88;5094827;28;20028;-48
2022/09/15 02:43:01;;;;;;;9.70;5.80;;;;;;;18.73;70.10;101272.56;5095947;28;20035;-47
2022/09/15 02:45:29;;;;;;;8.20;5.70;;;;;;;18.66;70.34;101285.44;5110791;28;20054;-48
2022/09/15 02:47:57;;;;;;;11.68;6.20;;;;;;;18.52;71.13;101273.28;5085704;28;20081;-48
2022/09/15 02:50:25;;;;;;;8.65;6.40;;;;;;;18.73;70.12;101280.69;5101130;28;20030;-48
2022/09/15 02:52:53;;;;;;;6.75;5.93;;;;;;;18.63;70.49;101280.50;5111310;28;20043;-48
2022/09/15 02:55:19;;;;;;;14.02;7.45;;;;;;;18.44;70.95;101279.13;5099216;28;20388;-48
2022/09/15 02:57:45;;;;;;;9.02;5.88;;;;;;;18.31;71.82;101291.13;5092824;27;20035;-50
2022/09/15 03:00:16;;;;;;;9.68;6.50;;;;;;;18.36;71.30;101287.66;5091700;28;20039;-48
2022/09/15 03:02:45;;;;;;;10.35;6.80;;;;;;;18.19;71.90;101288.50;5106206;28;20028;-48
2022/09/15 03:05:13;;;;;;;11.80;6.47;;;;;;;18.23;71.88;101293.44;5091695;28;20457;-49
2022/09/15 03:07:40;;;;;;;9.40;6.43;;;;;;;18.24;71.59;101286.94;5105616;28;20085;-48
2022/09/15 03:10:07;;;;;;;11.60;6.78;;;;;;;18.25;71.29;101291.28;5111855;28;20024;-49
2022/09/15 03:12:42;;;;;;;9.48;6.47;;;;;;;18.20;71.80;101290.13;5107150;28;20058;-48
2022/09/15 03:15:11;;;;;;;9.07;6.88;;;;;;;18.11;71.84;101291.63;5090937;28;20107;-47
2022/09/15 03:17:42;;;;;;;11.55;6.50;;;;;;;18.19;71.46;101291.19;5098570;28;20400;-47
2022/09/15 03:20:11;;;;;;;10.75;6.85;;;;;;;18.37;70.71;101297.44;5105903;28;20023;-48
2022/09/15 03:22:37;;;;;;;10.05;6.13;;;;;;;18.19;71.30;101293.91;5075706;28;20515;-48
2022/09/15 03:25:05;;;;;;;12.00;6.57;;;;;;;18.21;70.82;101299.06;5092394;28;20604;-49
2022/09/15 03:27:32;;;;;;;10.48;6.13;;;;;;;18.22;70.62;101294.50;5090873;28;20028;-48
2022/09/15 03:29:58;;;;;;;10.25;7.10;;;;;;;18.13;71.34;101294.88;5090624;28;20114;-48
2022/09/15 03:32:25;;;;;;;11.38;6.70;;;;;;;18.08;70.77;101294.81;5106695;28;20498;-48
2022/09/15 03:34:51;;;;;;;9.73;7.25;;;;;;;18.16;71.05;101294.41;5091569;28;20058;-51
2022/09/15 03:37:17;;;;;;;11.23;6.68;;;;;;;17.91;71.92;101300.19;5100127;28;20036;-50
2022/09/15 03:39:43;;;;;;;9.30;6.47;;;;;;;18.03;71.45;101296.59;5106906;28;20042;-47
2022/09/15 03:42:10;;;;;;;12.15;7.32;;;;;;;18.06;71.20;101307.78;5091806;28;20105;-49
2022/09/15 03:44:36;;;;;;;12.80;6.97;;;;;;;18.15;70.70;101306.28;5090999;28;20032;-49
2022/09/15 03:47:03;;;;;;;11.65;6.97;;;;;;;18.07;70.83;101312.13;5091023;28;20032;-48
2022/09/15 03:49:29;;;;;;;13.25;6.10;;;;;;;18.10;70.75;101310.81;5091098;28;20055;-51
2022/09/15 03:51:56;;;;;;;12.35;7.20;;;;;;;18.13;70.37;101315.75;5105364;28;20036;-49
2022/09/15 03:54:22;;;;;;;12.38;7.55;;;;;;;18.06;70.37;101321.31;5111994;28;20483;-48
2022/09/15 03:56:50;;;;;;;11.48;7.10;;;;;;;18.13;70.97;101319.28;5093487;28;20039;-50
2022/09/15 03:59:19;;;;;;;11.60;6.95;;;;;;;18.06;70.80;101324.03;5105470;28;20025;-49
2022/09/15 04:01:46;;;;;;;10.30;7.32;;;;;;;18.03;70.77;101324.50;5099282;28;20020;-48
2022/09/15 04:04:13;;;;;;;12.57;6.95;;;;;;;18.01;70.70;101326.66;5101753;28;20420;-50
2022/09/15 04:06:40;;;;;;;11.00;7.35;;;;;;;18.20;70.01;101329.94;5091296;28;20028;-50
2022/09/15 04:09:07;;;;;;;9.38;6.95;;;;;;;18.10;70.24;101322.50;5095264;28;20063;-51
2022/09/15 04:11:33;;;;;;;9.52;6.72;;;;;;;17.99;70.62;101328.78;5091061;28;20024;-52
2022/09/15 04:14:00;;;;;;;11.10;7.10;;;;;;;17.93;70.69;101324.31;5106549;28;20070;-48
2022/09/15 04:16:27;;;;;;;10.75;7.47;;;;;;;17.85;71.18;101330.13;5092213;28;20047;-50
2022/09/15 04:18:54;;;;;;;9.60;6.50;;;;;;;17.95;70.61;101333.03;5096285;28;20403;-49
2022/09/15 04:21:23;;;;;;;10.02;7.20;;;;;;;17.97;70.45;101332.78;5098212;28;20012;-51
2022/09/15 04:23:50;;;;;;;9.57;6.82;;;;;;;17.94;70.28;101323.28;5100092;28;20392;-51
2022/09/15 04:26:30;;;;;;;10.70;7.40;;;;;;;17.82;70.67;101328.75;5106959;28;20061;-50
2022/09/15 04:28:56;;;;;;;15.82;7.85;;;;;;;17.85;71.09;101336.38;5097872;28;20042;-51
2022/09/15 04:31:23;;;;;;;11.02;7.03;;;;;;;17.81;71.13;101334.38;5090030;28;20028;-48
2022/09/15 04:33:52;;;;;;;10.70;7.22;;;;;;;17.85;70.97;101332.84;5092207;28;20023;-51
2022/09/15 04:36:22;;;;;;;12.30;7.70;;;;;;;18.00;70.66;101335.03;5095718;28;20524;-50
2022/09/15 04:38:49;;;;;;;14.00;8.18;;;;;;;17.63;72.38;101327.25;5100756;28;20072;-51
2022/09/15 04:41:16;;;;;;;15.18;8.48;;;;;;;17.80;71.55;101338.97;5112429;27;20043;-50
2022/09/15 04:43:43;;;;;;;14.63;7.47;;;;;;;17.81;71.61;101337.09;5111742;28;20032;-52
2022/09/15 04:46:10;;;;;;;14.00;8.80;;;;;;;17.76;72.20;101334.28;5094845;28;20032;-50
2022/09/15 04:48:36;;;;;;;13.32;7.30;;;;;;;17.81;71.52;101347.94;5092926;28;20036;-53
2022/09/15 04:51:05;;;;;;;9.77;7.65;;;;;;;17.68;71.89;101338.19;5108836;28;20114;-53
2022/09/15 04:53:32;;;;;;;13.02;8.02;;;;;;;17.85;71.74;101336.38;5097530;28;20204;-49
2022/09/15 04:56:07;;;;;;;14.38;8.75;;;;;;;17.87;71.52;101342.34;5100912;28;20131;-50
2022/09/15 04:58:41;;;;;;;13.25;9.00;;;;;;;17.73;72.25;101345.63;5102350;28;20032;-49
2022/09/15 05:01:19;;;;;;;11.55;8.13;;;;;;;17.78;72.18;101343.00;5099215;28;20040;-52
2022/09/15 05:03:46;;;;;;;13.10;8.60;;;;;;;17.71;72.13;101343.09;5093745;28;20054;-52
2022/09/15 05:06:15;;;;;;;13.32;8.85;;;;;;;17.64;73.37;101354.06;5097212;28;20133;-52
2022/09/15 05:08:41;;;;;;;17.00;8.38;;;;;;;17.79;72.49;101345.47;5111309;28;20027;-50
2022/09/15 05:11:10;;;;;;;12.40;8.15;;;;;;;17.60;73.35;101343.97;5114207;28;20024;-50
2022/09/15 05:13:37;;;;;;;15.50;8.75;;;;;;;17.60;73.52;101352.06;5093996;28;20031;-51
2022/09/15 05:16:05;;;;;;;22.13;8.88;;;;;;;17.42;73.97;101343.06;5093932;28;20029;-50
2022/09/15 05:18:32;;;;;;;12.43;8.27;;;;;;;17.39;74.54;101343.56;5099518;28;20048;-51
2022/09/15 05:21:02;;;;;;;12.77;8.13;;;;;;;17.22;74.71;101337.25;5109435;28;20116;-49
2022/09/15 05:23:28;;;;;;;13.20;7.88;;;;;;;17.31;74.37;101337.69;5099010;28;20024;-49
2022/09/15 05:25:56;;;;;;;11.82;8.60;;;;;;;17.25;74.83;101333.22;5093781;28;20130;-51
2022/09/15 05:28:23;;;;;;;10.70;8.13;;;;;;;17.14;74.93;101330.31;5102036;28;20036;-49
2022/09/15 05:30:53;;;;;;;14.10;8.10;;;;;;;17.31;74.74;101334.97;5094221;28;20373;-52
2022/09/15 05:33:21;;;;;;;16.02;8.15;;;;;;;17.18;74.29;101332.56;5111606;28;20026;-51
2022/09/15 05:35:59;;;;;;;12.50;8.27;;;;;;;17.05;74.97;101333.63;5109159;28;20118;-50
2022/09/15 05:38:29;;;;;;;14.77;9.07;;;;;;;17.01;75.29;101332.44;5095074;27;20055;-51
2022/09/15 05:41:04;;;;;;;14.43;8.93;;;;;;;17.01;74.99;101329.75;5098024;28;20050;-50
2022/09/15 05:43:32;;;;;;;16.80;9.32;;;;;;;17.10;74.73;101333.72;5089320;28;20027;-51
2022/09/15 05:45:59;;;;;;;12.75;7.88;;;;;;;17.03;74.76;101333.03;5084390;28;20019;-51
2022/09/15 05:48:26;;;;;;;11.88;8.23;;;;;;;16.93;75.16;101335.50;5106261;28;20122;-49
2022/09/15 05:50:54;;;;;;;16.70;8.55;;;;;;;16.93;74.72;101335.50;5111827;28;20082;-50
2022/09/15 05:53:21;;;;;;;13.88;8.45;;;;;;;16.98;74.51;101341.84;5097295;28;20036;-49
2022/09/15 05:55:53;;;;;;;12.38;8.30;;;;;;;16.92;74.56;101334.69;5093252;28;20035;-51
2022/09/15 05:58:19;;;;;;;14.75;8.68;;;;;;;16.92;74.44;101339.25;5093334;28;20039;-48
2022/09/15 06:00:45;;;;;;;14.13;8.45;;;;;;;16.87;74.60;101338.09;5095035;28;20039;-50
2022/09/15 06:03:15;;;;;;;16.20;10.30;;;;;;;16.90;74.17;101336.81;5107629;28;20476;-49
2022/09/15 06:05:42;;;;;;;14.82;8.80;;;;;;;16.82;74.27;101337.16;5110873;28;20027;-48
2022/09/15 06:08:09;;;;;;;11.60;8.68;;;;;;;17.02;74.67;101344.91;5096159;28;20044;-48
2022/09/15 06:10:36;;;;;;;13.80;8.95;;;;;;;17.03;74.30;101339.25;5106630;28;20107;-48
2022/09/15 06:13:02;;;;;;;15.02;8.85;;;;;;;16.92;74.85;101342.78;5092451;28;20169;-51
2022/09/15 06:15:28;;;;;;;12.77;9.30;;;;;;;16.96;74.74;101338.56;5092970;28;20023;-52
2022/09/15 06:17:54;;;;;;;18.13;9.65;;;;;;;17.02;74.59;101342.22;5096690;28;20097;-50
2022/09/15 06:20:21;;;;;;;12.40;7.70;;;;;;;16.76;75.62;101335.38;5095258;28;20096;-45
2022/09/15 06:22:47;;;;;;;13.55;8.43;;;;;;;16.87;75.09;101343.50;5107283;28;20035;-47
2022/09/15 06:25:14;;;;;;;16.23;8.75;;;;;;;16.78;76.42;101338.69;5092608;28;20153;-46
2022/09/15 06:27:41;;;;;;;15.80;8.80;;;;;;;16.88;76.42;101338.94;5095521;28;20028;-47
2022/09/15 06:30:09;;;;;;;11.68;8.38;;;;;;;16.95;75.94;101336.09;5093491;28;20020;-51
2022/09/15 06:32:35;;;;;;;12.57;8.55;;;;;;;16.90;76.03;101339.50;5075437;28;20112;-48
2022/09/15 06:35:06;;;;;;;12.15;8.13;;;;;;;16.81;76.03;101344.44;5078379;28;20484;-47
2022/09/15 06:37:35;;;;;;;10.52;8.70;;;;;;;16.78;76.45;101346.81;5095621;28;20085;-47
2022/09/15 06:40:02;;;;;;;12.07;8.48;;;;;;;16.75;76.08;101345.38;5076386;28;20039;-47
2022/09/15 06:42:29;;;;;;;11.98;8.63;;;;;;;16.70;76.03;101344.41;5106265;28;20044;-47
2022/09/15 06:44:55;;;;;;;12.90;8.80;;;;;;;16.72;76.11;101345.88;5100038;28;20528;-47
2022/09/15 06:47:21;;;;;;;12.98;8.70;;;;;;;16.67;76.17;101344.88;5101849;28;20028;-48
2022/09/15 06:49:47;;;;;;;13.98;8.23;;;;;;;16.60;76.13;101344.97;5091268;28;20020;-48
2022/09/15 06:52:13;;;;;;;12.27;9.18;;;;;;;16.71;76.20;101343.38;5100343;28;20023;-47
2022/09/15 06:54:40;;;;;;;13.88;8.38;;;;;;;16.71;76.69;101337.97;5093341;28;20111;-48
2022/09/15 06:57:06;;;;;;;13.38;9.35;;;;;;;16.64;76.91;101341.56;5107448;28;20487;-49
2022/09/15 06:59:32;;;;;;;11.10;7.97;;;;;;;16.73;76.53;101339.41;5101460;28;20123;-48
2022/09/15 07:01:58;;;;;;;14.18;9.07;;;;;;;16.55;77.55;101340.28;5091423;28;20388;-48
2022/09/15 07:04:24;;;;;;;19.80;9.82;;;;;;;16.73;77.57;101339.41;5103497;28;20110;-48
2022/09/15 07:06:50;;;;;;;14.38;8.90;;;;;;;16.75;76.85;101349.97;5101448;28;20034;-49
2022/09/15 07:09:17;;;;;;;10.88;8.57;;;;;;;16.64;77.09;101351.56;5105934;28;20142;-48
2022/09/15 07:11:44;;;;;;;11.48;9.15;;;;;;;16.70;77.26;101355.22;5091993;28;20090;-49
2022/09/15 07:14:11;;;;;;;12.80;8.70;;;;;;;16.49;78.07;101352.03;5091458;28;20031;-48
2022/09/15 07:16:37;;;;;;;15.05;9.30;;;;;;;16.58;77.95;101360.63;5090375;28;20140;-48
2022/09/15 07:19:04;;;;;;;12.30;8.32;;;;;;;16.66;77.74;101356.72;5091810;28;20032;-51
2022/09/15 07:21:31;;;;;;;14.80;9.02;;;;;;;16.49;78.23;101352.03;5101772;28;20101;-49
2022/09/15 07:23:57;;;;;;;11.75;8.70;;;;;;;16.68;77.71;101354.63;5098904;28;20031;-45
2022/09/15 07:26:26;;;;;;;15.00;9.48;;;;;;;16.61;77.81;101350.16;5094082;28;20036;-48
2022/09/15 07:29:01;;;;;;;15.30;9.05;;;;;;;16.50;77.72;101350.97;5094920;28;20103;-50
2022/09/15 07:31:31;;;;;;;14.40;8.98;;;;;;;16.49;78.06;101356.59;5091550;28;20020;-49
2022/09/15 07:34:01;;;;;;;16.80;9.25;;;;;;;16.51;77.45;101349.91;5091014;28;20103;-48
2022/09/15 07:36:28;;;;;;;13.65;8.88;;;;;;;16.57;77.70;101354.38;5090980;28;20023;-48
2022/09/15 07:38:54;;;;;;;17.73;9.95;;;;;;;16.50;77.40;101356.38;5091161;28;20384;-51
2022/09/15 07:41:26;;;;;;;10.95;8.80;;;;;;;16.47;77.34;101356.84;5091392;28;20032;-49
2022/09/15 07:43:55;;;;;;;14.15;9.23;;;;;;;16.54;77.44;101352.13;5093753;28;20036;-48
2022/09/15 07:46:22;;;;;;;10.52;8.48;;;;;;;16.50;77.67;101358.25;5091060;28;20020;-49
2022/09/15 07:48:50;;;;;;;14.65;9.25;;;;;;;16.47;77.31;101358.72;5078159;28;20037;-48
2022/09/15 07:51:18;;;;;;;14.40;9.02;;;;;;;16.39;77.58;101359.88;5077148;28;20193;-48
2022/09/15 07:53:46;;;;;;;11.68;8.35;;;;;;;16.40;77.58;101369.63;5070856;28;20024;-49
2022/09/15 07:56:12;;;;;;;15.23;9.23;;;;;;;16.43;76.91;101361.03;5090618;28;20036;-50
2022/09/15 07:58:38;;;;;;;14.63;9.45;;;;;;;16.29;77.66;101367.72;5091205;28;20049;-50
2022/09/15 08:01:09;;;;;;;13.05;8.45;;;;;;;16.32;77.92;101367.25;5102998;28;20028;-47
2022/09/15 08:03:40;;;;;;;12.15;8.80;;;;;;;16.31;78.02;101368.31;5095343;28;20455;-50
2022/09/15 08:06:06;;;;;;;10.77;8.68;;;;;;;16.26;78.68;101373.56;5092553;28;20032;-51
2022/09/15 08:08:32;;;;;;;15.02;9.02;;;;;;;16.34;78.20;101371.38;5086107;28;20036;-49
2022/09/15 08:10:59;;;;;;;11.38;8.65;;;;;;;16.45;78.05;101366.25;5095098;28;20086;-50
2022/09/15 08:13:25;;;;;;;15.15;8.95;;;;;;;16.45;77.85;101372.47;5094719;28;20024;-49
2022/09/15 08:15:51;;;;;;;12.98;9.15;;;;;;;16.37;78.11;101370.09;5094867;28;20051;-50
2022/09/15 08:18:17;;;;;;;16.15;9.63;;;;;;;16.28;78.34;101372.31;5111750;28;20038;-48
2022/09/15 08:20:44;;;;;;;16.40;9.32;;;;;;;16.09;79.11;101374.22;5115339;28;20023;-47
2022/09/15 08:23:10;;;;;;;12.93;9.32;;;;;;;16.19;79.13;101368.28;5115370;28;20032;-49
2022/09/15 08:25:40;;;;;;;15.27;10.48;;;;;;;16.09;79.50;101368.81;5115211;28;20034;-49
2022/09/15 08:28:06;;;;;;;11.27;9.70;;;;;;;16.09;79.86;101363.44;5115067;28;20020;-47
2022/09/15 08:30:32;;;;;;;19.35;9.95;;;;;;;16.01;80.62;101366.47;5115113;28;20475;-47
2022/09/15 08:32:58;;;;;;;15.98;10.77;;;;;;;16.10;79.83;101366.94;5114867;28;20039;-47
2022/09/15 08:35:25;;;;;;;19.52;10.52;;;;;;;15.87;80.35;101364.16;5114414;28;20024;-48
2022/09/15 08:37:54;;;;;;;18.30;10.90;;;;;;;15.81;80.97;101366.72;5110041;27;20067;-50
2022/09/15 08:40:36;;;;;;;16.38;11.98;;;;;;;15.78;81.17;101367.19;5094503;28;20027;-47
2022/09/15 08:43:11;;;;;;;16.70;10.95;;;;;;;15.95;80.34;101370.09;5088607;28;20024;-50
2022/09/15 08:45:49;;;;;;;;;;;;;;;15.72;81.67;101368.09;5074509;28;20124;-48
2022/09/15 08:48:19;;;;;;;13.93;10.00;;;;;;;15.83;80.88;101366.50;5074278;28;19908;-47
2022/09/15 08:50:51;;;;;;;17.83;10.63;;;;;;;15.61;81.92;101359.91;5084118;28;20047;-48
2022/09/15 08:53:37;;;;;;;15.50;10.52;;;;;;;15.70;82.13;101366.66;5114593;28;20027;-48
2022/09/15 08:56:13;;;;;;;16.08;9.57;;;;;;;15.60;82.07;101372.56;5114663;28;20024;-49
2022/09/15 08:58:39;;;;;;;14.60;10.13;;;;;;;15.73;81.44;101369.75;5114479;28;20034;-50
2022/09/15 09:01:24;;;;;;;12.90;9.13;;;;;;;15.62;81.82;101365.06;5097438;28;20039;-47
2022/09/15 09:04:21;;;;;;;16.63;11.07;;;;;;;15.75;81.18;101361.41;5097708;28;20036;-48
2022/09/15 09:07:05;;;;;;;17.65;10.93;;;;;;;15.74;81.65;101359.78;5114530;28;20035;-48
2022/09/15 09:10:22;;;;;;;16.77;10.17;;;;;;;15.51;82.59;101369.34;5110077;28;20472;-47
2022/09/15 09:13:29;;;;;;;18.80;10.90;;;;;;;15.48;82.16;101352.78;5025749;28;20038;-50
2022/09/15 09:16:22;;;;;;;17.30;10.25;;;;;;;15.42;82.79;101362.59;5004754;28;20041;-49
2022/09/15 09:19:19;;;;;;;18.48;11.15;;;;;;;15.45;82.69;101364.03;5087304;28;20086;-48
2022/09/15 09:21:58;;;;;;;15.73;10.90;;;;;;;15.18;84.13;101366.22;5073691;28;20025;-48
2022/09/15 09:24:39;;;;;;;15.48;10.68;;;;;;;15.36;83.48;101366.22;5091530;28;20027;-50
2022/09/15 09:27:14;;;;;;;17.85;10.75;;;;;;;15.40;83.00;101363.91;5084493;28;20024;-49
2022/09/15 09:29:48;;;;;;;21.25;10.88;;;;;;;15.41;83.25;101369.06;5093252;28;20357;-51
2022/09/15 09:32:31;;;;;;;13.40;9.63;;;;;;;15.30;84.19;101359.00;5093488;28;20031;-47
2022/09/15 09:35:15;;;;;;;16.13;10.55;;;;;;;15.40;83.47;101361.19;5088221;28;20025;-50
2022/09/15 09:37:41;;;;;;;15.00;10.05;;;;;;;15.30;83.66;101361.72;5073198;28;20035;-48
2022/09/15 09:40:13;;;;;;;16.23;9.70;;;;;;;15.39;83.60;101368.47;5091579;28;20032;-48
2022/09/15 09:42:39;;;;;;;16.20;9.77;;;;;;;15.48;83.26;101368.97;5093886;28;20085;-48
2022/09/15 09:45:06;;;;;;;15.00;9.63;;;;;;;15.14;84.52;101375.78;5096501;28;20020;-48
2022/09/15 09:47:34;;;;;;;16.35;10.50;;;;;;;15.28;84.29;101367.34;5093395;28;20043;-48
2022/09/15 09:50:01;;;;;;;12.43;9.40;;;;;;;15.35;83.86;101367.25;5092944;28;20027;-47
2022/09/15 09:52:36;;;;;;;17.15;11.00;;;;;;;15.29;85.10;101368.97;5093064;28;20112;-47
2022/09/15 09:55:18;;;;;;;13.07;9.20;;;;;;;15.51;83.83;101373.94;5091779;28;20081;-47
2022/09/15 09:57:44;;;;;;;12.52;9.38;;;;;;;15.27;84.48;101370.28;5094456;28;20036;-47
2022/09/15 10:00:33;;;;;;;14.52;9.88;;;;;;;15.27;85.30;101372.97;5093251;28;20028;-47
2022/09/15 10:03:10;;;;;;;14.05;9.48;;;;;;;15.32;84.83;101375.78;5093012;28;20032;-47
2022/09/15 10:05:36;;;;;;;15.40;10.00;;;;;;;15.31;84.46;101368.75;5092787;28;20028;-50
2022/09/15 10:08:03;;;;;;;18.08;10.55;;;;;;;15.26;84.81;101376.69;5092835;28;20024;-48
2022/09/15 10:10:31;;;;;;;12.98;9.05;;;;;;;15.27;84.86;101381.88;5092707;28;20031;-49
2022/09/15 10:13:01;;;;;;;13.88;8.95;;;;;;;15.43;84.34;101376.91;5074949;28;20413;-48
2022/09/15 10:15:33;;;;;;;12.38;8.68;;;;;;;15.37;84.20;101377.81;5083074;28;20040;-48
2022/09/15 10:18:00;;;;;;;11.88;8.23;;;;;;;15.28;84.31;101382.69;5090658;28;20105;-50
2022/09/15 10:20:34;;;;;;;14.02;9.10;;;;;;;15.40;83.76;101382.78;5092721;28;20089;-48
2022/09/15 10:23:21;;;;;;;14.25;9.55;;;;;;;15.45;82.81;101381.06;5104851;28;20031;-47
2022/09/15 10:25:53;;;;;;;14.65;10.68;;;;;;;15.41;83.13;101387.13;5111032;28;20023;-47
2022/09/15 10:28:24;;;;;;;13.40;10.48;;;;;;;15.44;82.83;101379.41;5112398;28;20656;-50
2022/09/15 10:31:24;;;;;;;14.82;9.88;;;;;;;15.41;82.91;101382.53;5110089;28;20124;-47
2022/09/15 10:33:51;;;;;;;18.35;10.57;;;;;;;15.50;82.62;101380.38;5072374;28;20041;-47
2022/09/15 10:36:23;;;;;;;14.67;8.60;;;;;;;15.35;83.68;101388.84;5083707;28;20400;-50
2022/09/15 10:39:02;;;;;;;15.32;10.45;;;;;;;15.43;83.15;101385.84;5112586;28;20237;-47
2022/09/15 10:41:30;;;;;;;17.02;11.00;;;;;;;15.35;83.79;101385.31;5099015;28;20023;-47
2022/09/15 10:44:00;;;;;;;15.52;10.15;;;;;;;15.51;83.30;101372.06;5092229;28;20749;-47
2022/09/15 10:46:48;;;;;;;17.55;10.05;;;;;;;15.44;82.76;101376.72;5090525;28;20028;-49
2022/09/15 10:49:40;;;;;;;17.73;9.40;;;;;;;15.34;83.26;101376.41;5091733;28;20520;-48
2022/09/15 10:52:18;;;;;;;14.82;9.52;;;;;;;15.16;84.06;101379.09;5091091;28;20085;-49
2022/09/15 10:54:58;;;;;;;18.90;10.38;;;;;;;15.25;83.63;101375.03;5092282;28;20070;-48
2022/09/15 10:57:42;;;;;;;14.40;9.90;;;;;;;15.39;83.39;101371.16;5090289;28;20115;-50
2022/09/15 11:00:24;;;;;;;14.48;10.30;;;;;;;15.20;83.91;101369.50;5090727;28;20021;-48
2022/09/15 11:03:08;;;;;;;14.77;10.43;;;;;;;15.28;83.72;101364.66;5071827;28;20020;-49
2022/09/15 11:05:48;;;;;;;15.40;10.23;;;;;;;15.34;83.48;101362.09;5075162;28;20479;-48
2022/09/15 11:08:46;;;;;;;15.82;10.35;;;;;;;15.34;83.51;101365.63;5111766;28;20027;-48
2022/09/15 11:11:28;;;;;;;14.82;9.57;;;;;;;15.34;83.09;101357.53;5100951;28;20234;-47
2022/09/15 11:14:16;;;;;;;17.02;11.10;;;;;;;15.38;82.94;101366.81;5071676;28;20051;-48
2022/09/15 11:16:50;;;;;;;17.48;10.98;;;;;;;15.22;83.13;101372.81;5082322;28;20055;-50
2022/09/15 11:19:34;;;;;;;17.23;10.93;;;;;;;15.25;83.09;101372.34;5091547;28;20085;-47
2022/09/15 11:22:11;;;;;;;15.07;10.65;;;;;;;15.22;83.21;101370.13;5090666;28;20032;-50
2022/09/15 11:24:59;;;;;;;15.88;9.93;;;;;;;15.15;84.18;101367.47;5091912;28;20113;-50
2022/09/15 11:27:41;;;;;;;11.55;8.90;;;;;;;15.01;84.66;101369.47;5089699;28;20028;-48
2022/09/15 11:30:24;;;;;;;12.55;8.75;;;;;;;15.03;84.41;101378.16;5090149;28;20028;-49
2022/09/15 11:32:55;;;;;;;12.40;9.38;;;;;;;15.17;83.69;101372.66;5100176;28;20028;-50
2022/09/15 11:35:42;;;;;;;15.45;9.82;;;;;;;15.15;84.08;101374.72;5098318;28;20035;-51
2022/09/15 11:38:36;;;;;;;13.73;9.70;;;;;;;15.08;84.46;101368.59;5075306;28;20059;-50
2022/09/15 11:41:05;;;;;;;13.55;9.60;;;;;;;14.96;84.67;101363.94;5088224;28;20028;-50
2022/09/15 11:43:44;;;;;;;12.50;9.25;;;;;;;15.03;84.48;101367.38;5094289;28;20028;-48